Time;durP1;ratioP1;P1;durP2;ratioP2;P2;SDS_P1;SDS_P2;PMS_P1;PMS_P2;Temp;Humidity;BMP_temperature;BMP_pressure;BME280_temperature;BME280_humidity;BME280_pressure;Samples;Min_cycle;Max_cycle;Signal;HPM_P1;HPM_P2
2023/05/11 00:04:32;;;;;;;;;;;8.90;99.90;;;;;;5046488;28;20284;-83
2023/05/11 00:06:58;;;;;;;;;;;9.00;99.90;;;;;;5030520;28;19909;-83
2023/05/11 00:09:24;;;;;;;;;;;8.90;99.90;;;;;;5019228;28;20065;-83
2023/05/11 00:11:53;;;;;;;;;;;8.90;99.90;;;;;;5031868;28;20668;-84
2023/05/11 00:14:18;;;;;;;;;;;9.00;99.90;;;;;;5025951;28;20053;-84
2023/05/11 00:19:51;;;;;;;;;;;9.10;99.90;;;;;;5021946;28;20050;-83
2023/05/11 00:22:24;;;;;;;;;;;9.10;99.90;;;;;;5028266;28;20356;-83
2023/05/11 00:24:53;;;;;;;;;;;9.00;99.90;;;;;;5018425;28;20050;-83
2023/05/11 00:27:18;;;;;;;;;;;9.00;99.90;;;;;;5033440;28;19905;-83
2023/05/11 00:29:44;;;;;;;;;;;9.00;99.90;;;;;;5034351;28;19921;-83
2023/05/11 00:32:09;;;;;;;;;;;8.90;99.90;;;;;;5019162;28;19924;-83
2023/05/11 00:34:35;;;;;;;;;;;8.80;99.90;;;;;;5029370;28;19913;-83
2023/05/11 00:37:00;;;;;;;;;;;8.80;99.90;;;;;;5032828;28;19999;-83
2023/05/11 00:39:27;;;;;;;;;;;8.80;99.90;;;;;;5031974;28;19947;-83
2023/05/11 00:41:54;;;;;;;;;;;8.70;99.90;;;;;;5029835;28;19948;-83
2023/05/11 00:44:20;;;;;;;;;;;8.70;99.90;;;;;;5033856;28;20048;-83
2023/05/11 00:46:47;;;;;;;;;;;8.70;99.90;;;;;;5023678;28;19909;-82
2023/05/11 00:49:16;;;;;;;;;;;8.60;99.90;;;;;;5011318;28;20096;-83
2023/05/11 00:51:42;;;;;;;;;;;8.60;99.90;;;;;;5016518;28;19917;-83
2023/05/11 00:54:13;;;;;;;;;;;8.60;99.90;;;;;;5036272;28;20021;-84
2023/05/11 00:56:40;;;;;;;;;;;8.60;99.90;;;;;;5017117;28;19913;-83
2023/05/11 00:59:05;;;;;;;;;;;8.50;99.90;;;;;;5028915;28;20264;-83
2023/05/11 01:01:31;;;;;;;;;;;8.50;99.90;;;;;;5038264;28;19909;-83
2023/05/11 01:03:56;;;;;;;;;;;8.50;99.90;;;;;;5047798;28;20191;-83
2023/05/11 01:06:22;;;;;;;;;;;8.50;99.90;;;;;;5022626;28;19909;-83
2023/05/11 01:09:11;;;;;;;;;;;8.50;99.90;;;;;;5030909;28;20047;-83
2023/05/11 01:11:53;;;;;;;;;;;8.50;99.90;;;;;;5028377;28;19913;-83
2023/05/11 01:14:22;;;;;;;;;;;8.50;99.90;;;;;;5031935;28;19909;-83
2023/05/11 01:16:50;;;;;;;;;;;8.60;99.90;;;;;;5030905;28;19960;-83
2023/05/11 01:19:22;;;;;;;;;;;8.50;99.90;;;;;;5021719;28;19959;-83
2023/05/11 01:21:49;;;;;;;;;;;8.60;99.90;;;;;;5022944;28;19914;-83
2023/05/11 01:24:33;;;;;;;;;;;8.60;99.90;;;;;;5019396;28;20047;-83
2023/05/11 01:27:11;;;;;;;;;;;8.60;99.90;;;;;;5031077;28;20050;-83
2023/05/11 01:33:15;;;;;;;;;;;8.50;99.90;;;;;;5021346;28;20788;-83
2023/05/11 01:35:44;;;;;;;;;;;8.40;99.90;;;;;;5020259;28;20007;-83
2023/05/11 01:38:11;;;;;;;;;;;8.40;99.90;;;;;;5029392;28;19921;-83
2023/05/11 01:40:38;;;;;;;;;;;8.30;99.90;;;;;;5027901;28;19967;-83
2023/05/11 01:43:06;;;;;;;;;;;8.30;99.90;;;;;;5013657;28;19914;-83
2023/05/11 01:45:33;;;;;;;;;;;8.30;99.90;;;;;;5015526;28;19943;-83
2023/05/11 01:48:01;;;;;;;;;;;8.30;99.90;;;;;;5015362;28;19995;-83
2023/05/11 01:50:27;;;;;;;;;;;8.20;99.90;;;;;;5013222;28;20526;-83
2023/05/11 01:52:53;;;;;;;;;;;8.20;99.90;;;;;;5027248;28;20046;-83
2023/05/11 01:55:21;;;;;;;;;;;8.10;99.90;;;;;;5036614;28;19909;-83
2023/05/11 01:57:48;;;;;;;;;;;8.10;99.90;;;;;;5031474;28;20042;-83
2023/05/11 02:00:15;;;;;;;;;;;8.10;99.90;;;;;;5012149;28;20026;-83
2023/05/11 02:02:41;;;;;;;;;;;8.10;99.90;;;;;;5005055;28;19920;-82
2023/05/11 02:05:08;;;;;;;;;;;8.10;99.90;;;;;;5016120;28;19945;-83
2023/05/11 02:07:35;;;;;;;;;;;8.10;99.90;;;;;;5014647;28;20127;-83
2023/05/11 02:10:01;;;;;;;;;;;8.00;99.90;;;;;;5044711;28;20947;-83
2023/05/11 02:12:27;;;;;;;;;;;7.90;99.90;;;;;;5025190;28;19920;-83
2023/05/11 02:14:53;;;;;;;;;;;8.00;99.90;;;;;;5036231;28;20041;-83
2023/05/11 02:17:21;;;;;;;;;;;7.90;99.90;;;;;;5015275;28;19913;-83
2023/05/11 02:19:47;;;;;;;;;;;7.80;99.90;;;;;;5038321;28;20046;-82
2023/05/11 02:22:14;;;;;;;;;;;7.80;99.90;;;;;;5025519;28;20004;-82
2023/05/11 02:24:40;;;;;;;;;;;7.70;99.90;;;;;;5022108;28;19933;-83
2023/05/11 02:27:07;;;;;;;;;;;7.70;99.90;;;;;;5020931;28;19909;-83
2023/05/11 02:29:33;;;;;;;;;;;7.70;99.90;;;;;;5017869;28;19916;-83
2023/05/11 02:32:05;;;;;;;;;;;7.70;99.90;;;;;;5019470;28;20490;-83
2023/05/11 02:34:37;;;;;;;;;;;7.70;99.90;;;;;;5023138;28;20245;-83
2023/05/11 02:37:34;;;;;;;;;;;7.70;99.90;;;;;;5020789;28;19909;-83
2023/05/11 02:40:05;;;;;;;;;;;7.60;99.90;;;;;;5013192;28;19960;-83
2023/05/11 02:42:35;;;;;;;;;;;7.70;99.90;;;;;;5038458;28;19920;-83
2023/05/11 02:45:02;;;;;;;;;;;7.60;99.90;;;;;;5018884;28;19909;-83
2023/05/11 02:47:31;;;;;;;;;;;7.60;99.90;;;;;;5030364;28;19912;-83
2023/05/11 02:49:59;;;;;;;;;;;7.60;99.90;;;;;;5030283;28;19913;-83
2023/05/11 02:52:28;;;;;;;;;;;7.50;99.90;;;;;;5028022;28;19971;-83
2023/05/11 02:54:55;;;;;;;;;;;7.50;99.90;;;;;;5037848;28;19909;-82
2023/05/11 02:57:21;;;;;;;;;;;7.50;99.90;;;;;;5018954;28;20026;-82
2023/05/11 02:59:48;;;;;;;;;;;7.50;99.90;;;;;;5027473;28;19909;-83
2023/05/11 03:02:14;;;;;;;;;;;7.40;99.90;;;;;;5020535;28;20034;-83
2023/05/11 03:04:41;;;;;;;;;;;7.40;99.90;;;;;;5033340;28;19912;-83
2023/05/11 03:07:07;;;;;;;;;;;7.40;99.90;;;;;;5040215;28;20300;-82
2023/05/11 03:09:33;;;;;;;;;;;7.40;99.90;;;;;;5021608;28;19909;-83
2023/05/11 03:12:01;;;;;;;;;;;7.30;99.90;;;;;;5032760;28;19909;-83
2023/05/11 03:14:30;;;;;;;;;;;7.40;99.90;;;;;;5033902;28;19932;-83
2023/05/11 03:16:57;;;;;;;;;;;7.30;99.90;;;;;;5033131;28;19909;-83
2023/05/11 03:19:25;;;;;;;;;;;7.40;99.90;;;;;;5033754;28;19916;-83
2023/05/11 03:21:51;;;;;;;;;;;7.40;99.90;;;;;;5009349;28;20324;-83
2023/05/11 03:24:17;;;;;;;;;;;7.40;99.90;;;;;;5022555;28;19992;-84
2023/05/11 03:26:43;;;;;;;;;;;7.50;99.90;;;;;;5027655;28;24113;-83
2023/05/11 03:29:28;;;;;;;;;;;7.50;99.90;;;;;;5022787;28;19913;-83
2023/05/11 03:31:53;;;;;;;;;;;7.50;99.90;;;;;;5032212;28;19936;-83
2023/05/11 03:34:20;;;;;;;;;;;7.50;99.90;;;;;;5034931;28;19915;-83
2023/05/11 03:36:47;;;;;;;;;;;7.50;99.90;;;;;;5026217;28;25046;-83
2023/05/11 03:39:14;;;;;;;;;;;7.50;99.90;;;;;;5033154;28;20666;-82
2023/05/11 03:41:41;;;;;;;;;;;7.40;99.90;;;;;;5045669;28;20482;-83
2023/05/11 03:47:38;;;;;;;;;;;7.40;99.90;;;;;;5021090;28;20024;-85
2023/05/11 03:50:06;;;;;;;;;;;7.40;99.90;;;;;;5030606;28;19920;-85
2023/05/11 03:52:31;;;;;;;;;;;7.40;99.90;;;;;;5023436;28;19925;-86
2023/05/11 03:54:58;;;;;;;;;;;7.40;99.90;;;;;;5031125;28;19909;-85
2023/05/11 03:57:24;;;;;;;;;;;7.40;99.90;;;;;;5028409;28;19920;-85
2023/05/11 03:59:50;;;;;;;;;;;7.40;99.90;;;;;;5034583;28;19916;-85
2023/05/11 04:02:15;;;;;;;;;;;7.30;99.90;;;;;;5023180;28;19913;-84
2023/05/11 04:04:41;;;;;;;;;;;7.40;99.90;;;;;;5022757;28;19909;-85
2023/05/11 04:07:07;;;;;;;;;;;7.30;99.90;;;;;;5032692;28;19932;-85
2023/05/11 04:09:32;;;;;;;;;;;7.40;99.90;;;;;;5032972;28;19916;-86
2023/05/11 04:11:58;;;;;;;;;;;7.50;99.90;;;;;;5017366;28;20391;-85
2023/05/11 04:14:24;;;;;;;;;;;7.60;99.90;;;;;;5023201;28;19913;-85
2023/05/11 04:16:49;;;;;;;;;;;7.60;99.90;;;;;;5034835;28;19999;-85
2023/05/11 04:19:15;;;;;;;;;;;7.70;99.90;;;;;;5024619;28;19909;-85
2023/05/11 04:21:41;;;;;;;;;;;7.70;99.90;;;;;;5046191;28;19913;-85
2023/05/11 04:24:08;;;;;;;;;;;7.80;99.90;;;;;;5016148;28;19898;-85
2023/05/11 04:26:33;;;;;;;;;;;7.90;99.90;;;;;;5024956;28;19913;-85
2023/05/11 04:28:59;;;;;;;;;;;7.90;99.90;;;;;;5002686;28;19916;-85
2023/05/11 04:31:50;;;;;;;;;;;8.00;99.90;;;;;;5038908;28;20000;-85
2023/05/11 04:34:16;;;;;;;;;;;8.00;99.90;;;;;;5030487;28;19937;-85
2023/05/11 04:36:45;;;;;;;;;;;8.10;99.90;;;;;;5037314;28;20281;-86
2023/05/11 04:39:11;;;;;;;;;;;8.30;99.90;;;;;;5022900;28;19913;-85
2023/05/11 04:41:39;;;;;;;;;;;8.30;99.90;;;;;;5015326;28;19965;-85
2023/05/11 04:44:05;;;;;;;;;;;8.40;99.90;;;;;;5038071;28;20747;-85
2023/05/11 04:46:30;;;;;;;;;;;8.50;99.90;;;;;;5016205;28;19916;-85
2023/05/11 04:48:57;;;;;;;;;;;8.50;99.90;;;;;;5031607;28;19917;-86
2023/05/11 04:51:23;;;;;;;;;;;8.60;99.90;;;;;;5018373;28;19964;-86
2023/05/11 04:53:48;;;;;;;;;;;8.70;99.90;;;;;;5034143;28;19905;-85
2023/05/11 04:56:14;;;;;;;;;;;8.80;99.90;;;;;;5031962;28;19920;-85
2023/05/11 04:58:40;;;;;;;;;;;8.80;99.90;;;;;;5010459;28;19917;-86
2023/05/11 05:01:07;;;;;;;;;;;8.90;99.90;;;;;;5031889;28;20249;-86
2023/05/11 05:03:33;;;;;;;;;;;8.90;99.90;;;;;;5027534;28;20053;-86
2023/05/11 05:05:59;;;;;;;;;;;8.90;99.90;;;;;;5030725;28;19998;-85
2023/05/11 05:08:24;;;;;;;;;;;9.00;99.90;;;;;;5045440;28;20566;-86
2023/05/11 05:10:52;;;;;;;;;;;9.00;99.90;;;;;;5015426;28;24062;-85
2023/05/11 05:13:18;;;;;;;;;;;9.00;99.90;;;;;;5016219;28;19912;-85
2023/05/11 05:15:44;;;;;;;;;;;9.10;99.90;;;;;;5036283;28;19914;-85
2023/05/11 05:18:09;;;;;;;;;;;9.10;99.90;;;;;;5028424;28;19924;-85
2023/05/11 05:20:35;;;;;;;;;;;9.20;99.90;;;;;;5017359;28;20005;-85
2023/05/11 05:23:01;;;;;;;;;;;9.20;99.90;;;;;;5031582;28;19909;-86
2023/05/11 05:25:26;;;;;;;;;;;9.30;99.90;;;;;;5016757;28;19920;-86
2023/05/11 05:27:53;;;;;;;;;;;9.30;99.90;;;;;;5023704;28;19912;-85
2023/05/11 05:30:19;;;;;;;;;;;9.40;99.90;;;;;;5032605;28;20288;-86
2023/05/11 05:32:46;;;;;;;;;;;9.50;99.90;;;;;;5024833;28;20564;-85
2023/05/11 05:35:12;;;;;;;;;;;9.60;99.90;;;;;;5020495;28;25056;-85
2023/05/11 05:37:38;;;;;;;;;;;9.70;99.90;;;;;;5038104;28;19913;-86
2023/05/11 05:40:04;;;;;;;;;;;9.70;99.90;;;;;;5032000;28;19924;-85
2023/05/11 05:42:32;;;;;;;;;;;9.70;99.90;;;;;;5032778;28;19909;-85
2023/05/11 05:44:59;;;;;;;;;;;9.90;99.90;;;;;;5031764;28;19916;-85
2023/05/11 05:47:25;;;;;;;;;;;9.90;99.90;;;;;;5023639;28;19913;-85
2023/05/11 05:49:50;;;;;;;;;;;9.90;99.90;;;;;;5048441;28;19963;-86
2023/05/11 05:52:16;;;;;;;;;;;9.90;99.90;;;;;;5028802;28;19909;-85
2023/05/11 05:54:42;;;;;;;;;;;10.00;99.90;;;;;;5027052;28;20356;-85
2023/05/11 05:57:08;;;;;;;;;;;10.00;99.90;;;;;;5037628;28;19912;-86
2023/05/11 05:59:33;;;;;;;;;;;10.00;99.90;;;;;;5022496;28;19995;-85
2023/05/11 06:01:59;;;;;;;;;;;10.10;99.90;;;;;;5003613;28;24067;-85
2023/05/11 06:04:26;;;;;;;;;;;10.20;99.90;;;;;;5027200;28;19913;-85
2023/05/11 06:06:54;;;;;;;;;;;10.20;99.90;;;;;;5025726;28;19916;-86
2023/05/11 06:09:20;;;;;;;;;;;10.20;99.90;;;;;;5017267;28;20272;-86
2023/05/11 06:11:47;;;;;;;;;;;10.20;99.90;;;;;;5030303;28;20697;-86
2023/05/11 06:14:13;;;;;;;;;;;10.20;99.90;;;;;;5025565;28;19921;-85
2023/05/11 06:16:40;;;;;;;;;;;10.20;99.90;;;;;;5035130;28;19920;-86
2023/05/11 06:19:07;;;;;;;;;;;10.30;99.90;;;;;;5025627;28;19894;-86
2023/05/11 06:21:32;;;;;;;;;;;10.30;99.90;;;;;;5030194;28;20000;-86
2023/05/11 06:23:58;;;;;;;;;;;10.50;99.90;;;;;;5025767;28;19916;-85
2023/05/11 06:26:27;;;;;;;;;;;10.60;99.90;;;;;;5028150;28;20404;-85
2023/05/11 06:28:53;;;;;;;;;;;10.80;99.90;;;;;;5038209;28;19960;-85
2023/05/11 06:31:19;;;;;;;;;;;10.90;99.90;;;;;;5025642;28;24077;-85
2023/05/11 06:33:49;;;;;;;;;;;11.00;99.90;;;;;;5031363;28;19920;-85
2023/05/11 06:36:22;;;;;;;;;;;11.10;99.90;;;;;;5027809;28;19952;-85
2023/05/11 06:38:48;;;;;;;;;;;11.10;99.90;;;;;;5041441;28;20343;-85
2023/05/11 06:41:14;;;;;;;;;;;11.10;99.90;;;;;;5039956;28;20396;-85
2023/05/11 06:43:39;;;;;;;;;;;11.30;99.90;;;;;;5031667;28;20364;-86
2023/05/11 06:46:17;;;;;;;;;;;11.40;99.90;;;;;;5015284;28;19913;-86
2023/05/11 06:48:43;;;;;;;;;;;11.20;99.90;;;;;;5035272;28;19952;-86
2023/05/11 06:51:10;;;;;;;;;;;11.20;99.90;;;;;;5036253;28;19955;-85
2023/05/11 06:53:36;;;;;;;;;;;11.20;99.90;;;;;;5026411;28;19909;-85
2023/05/11 06:56:02;;;;;;;;;;;11.20;99.90;;;;;;5013785;28;20368;-85
2023/05/11 06:58:28;;;;;;;;;;;11.20;99.90;;;;;;5026329;28;19916;-85
2023/05/11 07:00:53;;;;;;;;;;;11.10;99.90;;;;;;5025102;28;19917;-85
2023/05/11 07:03:19;;;;;;;;;;;10.90;99.90;;;;;;5037115;28;20000;-85
2023/05/11 07:05:45;;;;;;;;;;;10.90;99.90;;;;;;5038004;28;19909;-85
2023/05/11 07:08:10;;;;;;;;;;;11.10;99.90;;;;;;5025190;28;19916;-85
2023/05/11 07:10:36;;;;;;;;;;;11.10;99.90;;;;;;5038793;28;19921;-86
2023/05/11 07:13:02;;;;;;;;;;;11.30;99.90;;;;;;5025384;28;25129;-86
2023/05/11 07:15:27;;;;;;;;;;;11.30;99.90;;;;;;5023411;28;19913;-85
2023/05/11 07:17:53;;;;;;;;;;;11.30;99.90;;;;;;5024553;28;19909;-86
2023/05/11 07:20:19;;;;;;;;;;;11.30;99.90;;;;;;5031951;28;19918;-85
2023/05/11 07:22:44;;;;;;;;;;;11.40;99.90;;;;;;5026619;28;20677;-85
2023/05/11 07:25:10;;;;;;;;;;;11.40;99.90;;;;;;5020020;28;19913;-86
2023/05/11 07:27:36;;;;;;;;;;;11.50;99.90;;;;;;5026574;28;19910;-85
2023/05/11 07:30:03;;;;;;;;;;;11.70;99.90;;;;;;5020164;28;19913;-85
2023/05/11 07:32:29;;;;;;;;;;;11.80;99.90;;;;;;5021794;28;19919;-85
2023/05/11 07:34:54;;;;;;;;;;;12.00;99.90;;;;;;5043395;28;19923;-86
2023/05/11 07:37:20;;;;;;;;;;;12.00;99.90;;;;;;5026609;28;20007;-85
2023/05/11 07:39:46;;;;;;;;;;;12.20;99.90;;;;;;5024002;28;19951;-84
2023/05/11 07:42:12;;;;;;;;;;;12.30;99.90;;;;;;5027680;28;19905;-86
2023/05/11 07:44:37;;;;;;;;;;;12.20;99.90;;;;;;5023182;28;19916;-85
2023/05/11 07:47:03;;;;;;;;;;;12.40;99.90;;;;;;5026862;28;19948;-86
2023/05/11 07:49:29;;;;;;;;;;;12.40;99.90;;;;;;5022676;28;19967;-86
2023/05/11 07:51:55;;;;;;;;;;;12.40;99.90;;;;;;5031285;28;19967;-85
2023/05/11 07:54:20;;;;;;;;;;;12.30;99.90;;;;;;5041013;28;19917;-86
2023/05/11 07:56:46;;;;;;;;;;;12.20;99.90;;;;;;5047437;28;19909;-86
2023/05/11 07:59:12;;;;;;;;;;;12.30;99.90;;;;;;5022400;28;20390;-86
2023/05/11 08:01:37;;;;;;;;;;;12.60;99.90;;;;;;5023856;28;19913;-86
2023/05/11 08:04:03;;;;;;;;;;;13.00;99.90;;;;;;5033972;28;19909;-86
2023/05/11 08:06:29;;;;;;;;;;;13.00;99.90;;;;;;5019631;28;20047;-86
2023/05/11 08:08:54;;;;;;;;;;;13.10;99.90;;;;;;5024502;28;20593;-86
2023/05/11 08:11:20;;;;;;;;;;;13.10;99.90;;;;;;5026768;28;19913;-86
2023/05/11 08:13:46;;;;;;;;;;;13.20;99.90;;;;;;5015405;28;19916;-85
2023/05/11 08:16:11;;;;;;;;;;;13.30;99.90;;;;;;5030836;28;19916;-86
2023/05/11 08:18:37;;;;;;;;;;;13.10;99.90;;;;;;5033420;28;19916;-85
2023/05/11 08:21:03;;;;;;;;;;;13.00;99.90;;;;;;5033963;28;19913;-86
2023/05/11 08:23:29;;;;;;;;;;;13.00;99.90;;;;;;5028605;28;19909;-86
2023/05/11 08:25:54;;;;;;;;;;;13.30;99.90;;;;;;5026505;28;19936;-86
2023/05/11 08:28:20;;;;;;;;;;;13.40;99.90;;;;;;5030041;28;20134;-86
2023/05/11 08:30:52;;;;;;;;;;;13.50;99.90;;;;;;5021031;28;19948;-86
2023/05/11 08:33:18;;;;;;;;;;;13.70;99.90;;;;;;5022826;28;20714;-86
2023/05/11 08:35:44;;;;;;;;;;;13.60;99.90;;;;;;5022334;28;20092;-86
2023/05/11 08:38:09;;;;;;;;;;;13.70;99.90;;;;;;5021322;28;19936;-86
2023/05/11 08:40:35;;;;;;;;;;;13.80;99.90;;;;;;5017487;28;19952;-86
2023/05/11 08:43:03;;;;;;;;;;;13.80;99.90;;;;;;5019290;28;19910;-86
2023/05/11 08:45:30;;;;;;;;;;;14.00;99.90;;;;;;5017274;28;20497;-86
2023/05/11 08:47:56;;;;;;;;;;;14.10;99.90;;;;;;5033028;28;20033;-86
2023/05/11 08:50:22;;;;;;;;;;;14.00;99.90;;;;;;5047363;28;20494;-86
2023/05/11 08:52:48;;;;;;;;;;;14.00;99.90;;;;;;5021572;28;19909;-86
2023/05/11 08:55:41;;;;;;;;;;;14.10;99.90;;;;;;5032526;28;20052;-86
2023/05/11 08:58:07;;;;;;;;;;;14.40;99.90;;;;;;5020933;28;20136;-86
2023/05/11 09:00:52;;;;;;;;;;;14.30;99.90;;;;;;5034893;28;20425;-86
2023/05/11 09:03:18;;;;;;;;;;;14.20;99.90;;;;;;5020450;28;19924;-86
2023/05/11 09:05:45;;;;;;;;;;;14.50;99.90;;;;;;5012218;28;20548;-86
2023/05/11 09:08:11;;;;;;;;;;;14.60;99.90;;;;;;5014771;28;20050;-86
2023/05/11 09:10:37;;;;;;;;;;;14.80;99.90;;;;;;5014370;28;20029;-86
2023/05/11 09:13:03;;;;;;;;;;;14.90;99.90;;;;;;5022925;28;19916;-86
2023/05/11 09:15:29;;;;;;;;;;;15.00;99.90;;;;;;5030336;28;20512;-86
2023/05/11 09:18:07;;;;;;;;;;;15.20;99.90;;;;;;5016590;28;20025;-86
2023/05/11 09:20:33;;;;;;;;;;;15.30;99.90;;;;;;5019436;28;20083;-86
2023/05/11 09:22:59;;;;;;;;;;;15.10;99.90;;;;;;5036079;28;20055;-86
2023/05/11 09:25:25;;;;;;;;;;;14.80;99.90;;;;;;5035932;28;20040;-86
2023/05/11 09:27:51;;;;;;;;;;;14.60;99.90;;;;;;5036081;28;20039;-85
2023/05/11 09:30:18;;;;;;;;;;;14.80;99.90;;;;;;5043706;28;20041;-86
2023/05/11 09:32:57;;;;;;;;;;;15.10;99.90;;;;;;5028224;28;19959;-86
2023/05/11 09:35:29;;;;;;;;;;;15.20;99.90;;;;;;5039576;28;20029;-86
2023/05/11 09:38:06;;;;;;;;;;;15.20;99.90;;;;;;5020921;28;19955;-87
2023/05/11 09:40:51;;;;;;;;;;;15.30;99.90;;;;;;5044636;28;20040;-86
2023/05/11 09:43:35;;;;;;;;;;;15.20;99.90;;;;;;5027472;28;20199;-86
2023/05/11 09:46:05;;;;;;;;;;;15.20;99.90;;;;;;5033281;28;20037;-86
2023/05/11 09:48:31;;;;;;;;;;;15.00;99.90;;;;;;5035581;28;20034;-86
2023/05/11 09:51:03;;;;;;;;;;;14.80;99.90;;;;;;5031474;28;20086;-86
2023/05/11 09:53:56;;;;;;;;;;;14.90;99.90;;;;;;5047361;28;20040;-86
2023/05/11 09:56:21;;;;;;;;;;;15.10;99.90;;;;;;5022402;28;20385;-86
2023/05/11 09:58:49;;;;;;;;;;;15.10;99.90;;;;;;5022863;28;20025;-86
2023/05/11 10:01:15;;;;;;;;;;;15.20;99.90;;;;;;5048201;28;20088;-86
2023/05/11 10:04:00;;;;;;;;;;;15.10;99.90;;;;;;5016169;28;20095;-86
2023/05/11 10:06:27;;;;;;;;;;;15.10;99.90;;;;;;5039841;28;20100;-85
2023/05/11 10:08:53;;;;;;;;;;;15.10;99.90;;;;;;5045762;28;20087;-86
2023/05/11 10:11:22;;;;;;;;;;;15.00;99.90;;;;;;5030211;28;20033;-86
2023/05/11 10:13:48;;;;;;;;;;;14.90;99.90;;;;;;5032900;28;20368;-86
2023/05/11 10:16:15;;;;;;;;;;;14.80;99.90;;;;;;5028526;28;20079;-87
2023/05/11 10:18:42;;;;;;;;;;;14.50;99.90;;;;;;5042177;28;20549;-86
2023/05/11 10:21:09;;;;;;;;;;;14.50;99.90;;;;;;5018890;28;20168;-86
2023/05/11 10:23:35;;;;;;;;;;;14.50;99.90;;;;;;5015986;28;20036;-86
2023/05/11 10:26:02;;;;;;;;;;;14.50;99.90;;;;;;5027006;28;20393;-86
2023/05/11 10:28:29;;;;;;;;;;;14.60;99.90;;;;;;5018144;28;20029;-86
2023/05/11 10:34:23;;;;;;;;;;;14.60;99.90;;;;;;5019380;28;20430;-86
2023/05/11 10:36:50;;;;;;;;;;;14.30;99.90;;;;;;5020788;28;20026;-86
2023/05/11 10:39:16;;;;;;;;;;;14.40;99.90;;;;;;5036024;28;20043;-86
2023/05/11 10:41:48;;;;;;;;;;;14.40;99.90;;;;;;5031768;28;20033;-86
2023/05/11 10:44:18;;;;;;;;;;;14.50;99.90;;;;;;5039249;28;20033;-86
2023/05/11 10:46:50;;;;;;;;;;;14.50;99.90;;;;;;5029412;28;20030;-86
2023/05/11 10:49:35;;;;;;;;;;;14.50;99.90;;;;;;5021538;28;20041;-86
2023/05/11 10:52:19;;;;;;;;;;;14.50;99.90;;;;;;5010430;28;20079;-86
2023/05/11 10:55:10;;;;;;;;;;;14.60;99.90;;;;;;5031714;28;20427;-86
2023/05/11 10:57:41;;;;;;;;;;;14.90;99.90;;;;;;5003841;28;20079;-86
2023/05/11 11:00:29;;;;;;;;;;;15.10;99.90;;;;;;5045099;28;20458;-86
2023/05/11 11:03:11;;;;;;;;;;;15.30;99.90;;;;;;5035104;28;20025;-87
2023/05/11 11:05:37;;;;;;;;;;;15.00;99.90;;;;;;5029815;28;20511;-86
2023/05/11 11:08:03;;;;;;;;;;;15.10;99.90;;;;;;5021725;28;20021;-86
2023/05/11 11:10:36;;;;;;;;;;;14.90;99.90;;;;;;5030099;28;20076;-85
2023/05/11 11:13:09;;;;;;;;;;;14.50;99.90;;;;;;5027133;28;20112;-86
2023/05/11 11:15:53;;;;;;;;;;;14.40;99.90;;;;;;5031705;28;20044;-86
2023/05/11 11:18:20;;;;;;;;;;;14.50;99.90;;;;;;5038796;28;20038;-85
2023/05/11 11:20:47;;;;;;;;;;;14.90;99.90;;;;;;5019597;28;20028;-86
2023/05/11 11:23:31;;;;;;;;;;;15.40;99.90;;;;;;5023873;28;20508;-85
2023/05/11 11:25:57;;;;;;;;;;;15.80;99.90;;;;;;5018882;28;20033;-86
2023/05/11 11:28:23;;;;;;;;;;;16.20;99.90;;;;;;5050283;28;20032;-86
2023/05/11 11:31:09;;;;;;;;;;;16.40;99.90;;;;;;5035405;28;20024;-86
2023/05/11 11:33:35;;;;;;;;;;;16.10;99.90;;;;;;5034657;28;20040;-86
2023/05/11 11:36:00;;;;;;;;;;;15.60;99.90;;;;;;5045390;28;20071;-86
2023/05/11 11:42:03;;;;;;;;;;;14.40;99.90;;;;;;5025660;28;20114;-86
2023/05/11 11:44:30;;;;;;;;;;;14.40;99.90;;;;;;5033131;28;20403;-86
2023/05/11 11:47:22;;;;;;;;;;;14.50;99.90;;;;;;5034069;28;20039;-86
2023/05/11 11:49:52;;;;;;;;;;;14.50;99.90;;;;;;5011032;28;20055;-86
2023/05/11 11:52:30;;;;;;;;;;;14.30;99.90;;;;;;5026936;28;20052;-87
2023/05/11 11:54:58;;;;;;;;;;;14.30;99.90;;;;;;5018750;28;20116;-86
2023/05/11 11:57:33;;;;;;;;;;;14.20;99.90;;;;;;5033707;28;20065;-86
2023/05/11 12:00:20;;;;;;;;;;;14.30;99.90;;;;;;5035040;28;20159;-87
2023/05/11 12:02:45;;;;;;;;;;;14.40;99.90;;;;;;5018556;28;20044;-86
2023/05/11 12:05:21;;;;;;;;;;;14.50;99.90;;;;;;5042541;28;20033;-86
2023/05/11 12:11:16;;;;;;;;;;;14.50;99.90;;;;;;5031038;28;20047;-86
2023/05/11 12:13:42;;;;;;;;;;;14.00;99.90;;;;;;5016452;28;20112;-86
2023/05/11 12:16:09;;;;;;;;;;;13.60;99.90;;;;;;5034211;28;20488;-87
2023/05/11 12:18:34;;;;;;;;;;;13.60;99.90;;;;;;5032266;28;20045;-86
2023/05/11 12:21:00;;;;;;;;;;;13.50;99.90;;;;;;5033624;28;20595;-85
2023/05/11 12:23:26;;;;;;;;;;;13.50;99.90;;;;;;5033662;28;20385;-86
2023/05/11 12:26:05;;;;;;;;;;;13.30;99.90;;;;;;5033855;28;20033;-86
2023/05/11 12:28:34;;;;;;;;;;;13.30;99.90;;;;;;5005319;28;20119;-86
2023/05/11 12:30:59;;;;;;;;;;;13.20;99.90;;;;;;5039468;28;20033;-86
2023/05/11 12:33:25;;;;;;;;;;;13.00;99.90;;;;;;5024065;28;20536;-86
2023/05/11 12:35:55;;;;;;;;;;;13.20;99.90;;;;;;5023361;28;20598;-86
2023/05/11 12:38:41;;;;;;;;;;;13.30;99.90;;;;;;5017360;28;20034;-86
2023/05/11 12:41:07;;;;;;;;;;;13.40;99.90;;;;;;5031589;28;20037;-86
2023/05/11 12:43:33;;;;;;;;;;;13.40;99.90;;;;;;5010565;28;20044;-86
2023/05/11 12:45:58;;;;;;;;;;;13.30;99.90;;;;;;5031300;28;20473;-86
2023/05/11 12:48:24;;;;;;;;;;;13.30;99.90;;;;;;5030493;28;20033;-86
2023/05/11 12:50:50;;;;;;;;;;;13.20;99.90;;;;;;5022804;28;20042;-86
2023/05/11 12:53:16;;;;;;;;;;;13.10;99.90;;;;;;5031507;28;20025;-85
2023/05/11 12:55:42;;;;;;;;;;;13.20;99.90;;;;;;5021579;28;20032;-86
2023/05/11 12:58:12;;;;;;;;;;;13.30;99.90;;;;;;5021316;28;20378;-86
2023/05/11 13:00:54;;;;;;;;;;;13.40;99.90;;;;;;5017940;28;20045;-86
2023/05/11 13:03:35;;;;;;;;;;;13.80;99.90;;;;;;5018158;28;20173;-86
2023/05/11 13:06:08;;;;;;;;;;;14.00;99.90;;;;;;5034415;28;20032;-86
2023/05/11 13:08:35;;;;;;;;;;;14.50;99.90;;;;;;5032018;28;20057;-86
2023/05/11 13:11:16;;;;;;;;;;;15.00;99.90;;;;;;5020865;28;20084;-86
2023/05/11 13:13:42;;;;;;;;;;;15.00;99.90;;;;;;5019092;28;20025;-86
2023/05/11 13:16:07;;;;;;;;;;;15.30;99.90;;;;;;5034084;28;20492;-86
2023/05/11 13:18:33;;;;;;;;;;;15.30;99.90;;;;;;5020330;28;20444;-86
2023/05/11 13:21:06;;;;;;;;;;;15.50;99.90;;;;;;5033866;28;20119;-86
2023/05/11 13:23:32;;;;;;;;;;;15.80;99.90;;;;;;5033836;28;20037;-86
2023/05/11 13:25:57;;;;;;;;;;;15.90;99.90;;;;;;5033629;28;20405;-86
2023/05/11 13:28:24;;;;;;;;;;;15.50;99.90;;;;;;5030640;28;20030;-87
2023/05/11 13:30:50;;;;;;;;;;;15.30;99.90;;;;;;5028310;28;20026;-86
2023/05/11 13:33:16;;;;;;;;;;;15.40;99.90;;;;;;5019593;28;20364;-87
2023/05/11 13:35:43;;;;;;;;;;;15.00;99.90;;;;;;5030804;28;20037;-86
2023/05/11 13:38:09;;;;;;;;;;;14.80;99.90;;;;;;5021957;28;20415;-86
2023/05/11 13:40:48;;;;;;;;;;;14.60;99.90;;;;;;5018596;28;20090;-86
2023/05/11 13:43:14;;;;;;;;;;;14.30;99.90;;;;;;5023254;28;20026;-86
2023/05/11 13:45:40;;;;;;;;;;;14.30;99.90;;;;;;5031216;28;20044;-86
2023/05/11 13:48:06;;;;;;;;;;;14.20;99.90;;;;;;5015325;28;20033;-86
2023/05/11 13:50:31;;;;;;;;;;;14.10;99.90;;;;;;5041413;28;19917;-86
2023/05/11 13:52:57;;;;;;;;;;;14.00;99.90;;;;;;5028256;28;20120;-86
2023/05/11 13:55:22;;;;;;;;;;;13.70;99.90;;;;;;5032838;28;20029;-86
2023/05/11 13:57:48;;;;;;;;;;;13.50;99.90;;;;;;5025477;28;20044;-86
2023/05/11 14:00:14;;;;;;;;;;;13.20;99.90;;;;;;5043042;28;20034;-86
2023/05/11 14:02:40;;;;;;;;;;;12.90;99.90;;;;;;5035792;28;20082;-86
2023/05/11 14:05:05;;;;;;;;;;;12.90;99.90;;;;;;5033367;28;20388;-86
2023/05/11 14:07:31;;;;;;;;;;;12.80;99.90;;;;;;5031679;28;20050;-86
2023/05/11 14:16:54;;;;;;;;;;;12.70;99.90;;;;;;5028194;28;20169;-86
2023/05/11 14:19:19;;;;;;;;;;;12.70;99.90;;;;;;5021678;28;20116;-86
2023/05/11 14:21:45;;;;;;;;;;;12.80;99.90;;;;;;5031511;28;20041;-86
2023/05/11 14:24:11;;;;;;;;;;;13.00;99.90;;;;;;5037494;28;20040;-86
2023/05/11 14:26:36;;;;;;;;;;;13.10;99.90;;;;;;5049253;28;20033;-86
2023/05/11 14:29:02;;;;;;;;;;;13.30;99.90;;;;;;5033007;28;20044;-86
2023/05/11 14:31:59;;;;;;;;;;;13.30;99.90;;;;;;5031829;28;20104;-86
2023/05/11 14:34:24;;;;;;;;;;;13.30;99.90;;;;;;5020647;28;20562;-86
2023/05/11 14:36:50;;;;;;;;;;;13.10;99.90;;;;;;5024293;28;20037;-86
2023/05/11 14:39:16;;;;;;;;;;;12.90;99.90;;;;;;5028228;28;20047;-86
2023/05/11 14:41:41;;;;;;;;;;;12.70;99.90;;;;;;5027654;28;20050;-86
2023/05/11 14:44:08;;;;;;;;;;;12.50;99.90;;;;;;5037657;28;20095;-86
2023/05/11 14:46:34;;;;;;;;;;;12.40;99.90;;;;;;5031478;28;20118;-86
2023/05/11 14:48:59;;;;;;;;;;;12.40;99.90;;;;;;5032438;28;20032;-86
2023/05/11 14:51:37;;;;;;;;;;;12.40;99.90;;;;;;5032149;28;20040;-87
2023/05/11 14:54:03;;;;;;;;;;;12.50;99.90;;;;;;5032190;28;20033;-85
2023/05/11 14:56:28;;;;;;;;;;;12.60;99.90;;;;;;5032482;28;20527;-86
2023/05/11 14:58:54;;;;;;;;;;;12.70;99.90;;;;;;5019809;28;20058;-86